Terminal Aerodrome Forecast
Issued by NWS Duluth, MN

Home | Current Version | Previous Version | Text Only | Print | Product List | Glossary Off
Versions: 1 2 3 4 5 6 7 8 9 10 11 12 13 14 15 16

000
FTUS43 KDLH 012300
TAFINL
TAF
KINL 012340Z 0200/0224 19008KT P6SM BKN090
     FM020200 17007KT P6SM BKN080 WS020/19035KT
     FM021500 18012G22KT P6SM BKN050 BKN180
     FM022200 19013KT P6SM VCSH BKN060 BKN140=

USA.gov is the U.S. government's official web portal to all federal, state and local government web resources and services.